sensor_id;sensor_type;location;lat;lon;timestamp;temperature;humidity
21891;DHT22;11110;52.386;16.940;2023-04-24T00:00:41;27.20;48.40
21891;DHT22;11110;52.386;16.940;2023-04-24T00:03:27;27.20;48.50
21891;DHT22;11110;52.386;16.940;2023-04-24T00:05:56;27.30;48.60
21891;DHT22;11110;52.386;16.940;2023-04-24T00:08:26;27.20;48.60
21891;DHT22;11110;52.386;16.940;2023-04-24T00:10:54;27.20;48.50
21891;DHT22;11110;52.386;16.940;2023-04-24T00:13:23;27.20;48.50
21891;DHT22;11110;52.386;16.940;2023-04-24T00:15:52;27.20;48.50
21891;DHT22;11110;52.386;16.940;2023-04-24T00:18:20;27.10;48.30
21891;DHT22;11110;52.386;16.940;2023-04-24T00:20:50;27.10;48.20
21891;DHT22;11110;52.386;16.940;2023-04-24T00:23:19;27.20;48.20
21891;DHT22;11110;52.386;16.940;2023-04-24T00:25:47;27.10;48.10
21891;DHT22;11110;52.386;16.940;2023-04-24T00:28:16;27.10;48.00
21891;DHT22;11110;52.386;16.940;2023-04-24T00:30:45;27.10;48.10
21891;DHT22;11110;52.386;16.940;2023-04-24T00:33:13;27.10;48.10
21891;DHT22;11110;52.386;16.940;2023-04-24T00:35:42;27.10;48.30
21891;DHT22;11110;52.386;16.940;2023-04-24T00:38:12;27.00;48.20
21891;DHT22;11110;52.386;16.940;2023-04-24T00:40:42;27.10;48.50
21891;DHT22;11110;52.386;16.940;2023-04-24T00:43:11;27.10;48.60
21891;DHT22;11110;52.386;16.940;2023-04-24T00:45:40;27.10;48.50
21891;DHT22;11110;52.386;16.940;2023-04-24T00:48:09;27.10;48.60
21891;DHT22;11110;52.386;16.940;2023-04-24T00:50:38;27.00;48.50
21891;DHT22;11110;52.386;16.940;2023-04-24T00:53:06;27.00;48.50
21891;DHT22;11110;52.386;16.940;2023-04-24T00:55:37;27.00;48.60
21891;DHT22;11110;52.386;16.940;2023-04-24T00:58:05;27.00;48.80
21891;DHT22;11110;52.386;16.940;2023-04-24T01:00:35;27.00;49.00
21891;DHT22;11110;52.386;16.940;2023-04-24T01:03:04;27.00;48.80
21891;DHT22;11110;52.386;16.940;2023-04-24T01:05:34;27.00;48.90
21891;DHT22;11110;52.386;16.940;2023-04-24T01:08:03;26.90;48.70
21891;DHT22;11110;52.386;16.940;2023-04-24T01:10:33;27.00;48.90
21891;DHT22;11110;52.386;16.940;2023-04-24T01:13:02;27.00;48.80
21891;DHT22;11110;52.386;16.940;2023-04-24T01:15:31;27.00;48.90
21891;DHT22;11110;52.386;16.940;2023-04-24T01:18:00;27.00;49.00
21891;DHT22;11110;52.386;16.940;2023-04-24T01:20:30;27.00;49.10
21891;DHT22;11110;52.386;16.940;2023-04-24T01:23:00;27.00;49.20
21891;DHT22;11110;52.386;16.940;2023-04-24T01:25:29;27.00;49.20
21891;DHT22;11110;52.386;16.940;2023-04-24T01:27:58;27.00;49.10
21891;DHT22;11110;52.386;16.940;2023-04-24T01:30:27;27.00;48.90
21891;DHT22;11110;52.386;16.940;2023-04-24T01:32:58;27.00;49.20
21891;DHT22;11110;52.386;16.940;2023-04-24T01:35:27;27.00;49.10
21891;DHT22;11110;52.386;16.940;2023-04-24T01:37:56;26.90;49.00
21891;DHT22;11110;52.386;16.940;2023-04-24T01:40:26;27.00;49.10
21891;DHT22;11110;52.386;16.940;2023-04-24T01:42:57;27.00;49.20
21891;DHT22;11110;52.386;16.940;2023-04-24T01:45:26;27.00;49.30
21891;DHT22;11110;52.386;16.940;2023-04-24T01:47:54;27.00;49.30
21891;DHT22;11110;52.386;16.940;2023-04-24T01:50:24;27.00;49.40
21891;DHT22;11110;52.386;16.940;2023-04-24T01:52:52;27.00;48.30
21891;DHT22;11110;52.386;16.940;2023-04-24T01:55:21;26.90;48.40
21891;DHT22;11110;52.386;16.940;2023-04-24T01:57:52;27.00;48.80
21891;DHT22;11110;52.386;16.940;2023-04-24T02:00:21;27.00;48.80
21891;DHT22;11110;52.386;16.940;2023-04-24T02:02:49;27.00;49.00
21891;DHT22;11110;52.386;16.940;2023-04-24T02:05:18;27.00;49.20
21891;DHT22;11110;52.386;16.940;2023-04-24T02:07:47;27.00;49.20
21891;DHT22;11110;52.386;16.940;2023-04-24T02:10:15;26.90;49.80
21891;DHT22;11110;52.386;16.940;2023-04-24T02:12:44;26.90;49.20
21891;DHT22;11110;52.386;16.940;2023-04-24T02:15:14;26.90;49.30
21891;DHT22;11110;52.386;16.940;2023-04-24T02:17:42;26.90;49.40
21891;DHT22;11110;52.386;16.940;2023-04-24T02:20:11;26.80;49.60
21891;DHT22;11110;52.386;16.940;2023-04-24T02:22:39;26.70;49.30
21891;DHT22;11110;52.386;16.940;2023-04-24T02:25:08;26.70;49.40
21891;DHT22;11110;52.386;16.940;2023-04-24T02:27:37;26.80;49.80
21891;DHT22;11110;52.386;16.940;2023-04-24T02:30:07;26.80;49.90
21891;DHT22;11110;52.386;16.940;2023-04-24T02:32:37;26.80;49.70
21891;DHT22;11110;52.386;16.940;2023-04-24T02:35:07;26.70;49.50
21891;DHT22;11110;52.386;16.940;2023-04-24T02:37:35;26.80;49.60
21891;DHT22;11110;52.386;16.940;2023-04-24T02:40:05;26.80;49.50
21891;DHT22;11110;52.386;16.940;2023-04-24T02:42:34;26.80;49.50
21891;DHT22;11110;52.386;16.940;2023-04-24T02:45:04;26.80;49.50
21891;DHT22;11110;52.386;16.940;2023-04-24T02:47:33;26.80;49.50
21891;DHT22;11110;52.386;16.940;2023-04-24T02:50:03;26.80;49.30
21891;DHT22;11110;52.386;16.940;2023-04-24T02:52:32;26.90;49.30
21891;DHT22;11110;52.386;16.940;2023-04-24T02:55:01;26.80;49.30
21891;DHT22;11110;52.386;16.940;2023-04-24T02:57:29;26.90;49.40
21891;DHT22;11110;52.386;16.940;2023-04-24T02:59:58;26.80;49.30
21891;DHT22;11110;52.386;16.940;2023-04-24T03:02:26;26.80;49.20
21891;DHT22;11110;52.386;16.940;2023-04-24T03:04:55;26.80;49.20
21891;DHT22;11110;52.386;16.940;2023-04-24T03:07:26;26.80;49.40
21891;DHT22;11110;52.386;16.940;2023-04-24T03:09:55;26.90;49.50
21891;DHT22;11110;52.386;16.940;2023-04-24T03:12:26;26.80;49.40
21891;DHT22;11110;52.386;16.940;2023-04-24T03:14:55;26.80;49.40
21891;DHT22;11110;52.386;16.940;2023-04-24T03:17:23;26.80;49.50
21891;DHT22;11110;52.386;16.940;2023-04-24T03:19:52;26.80;49.40
21891;DHT22;11110;52.386;16.940;2023-04-24T03:22:20;26.80;49.60
21891;DHT22;11110;52.386;16.940;2023-04-24T03:24:51;26.80;49.60
21891;DHT22;11110;52.386;16.940;2023-04-24T03:27:19;26.80;49.60
21891;DHT22;11110;52.386;16.940;2023-04-24T03:30:14;26.80;49.60
21891;DHT22;11110;52.386;16.940;2023-04-24T03:32:48;26.80;49.50
21891;DHT22;11110;52.386;16.940;2023-04-24T03:35:22;26.80;49.50
21891;DHT22;11110;52.386;16.940;2023-04-24T03:37:51;26.80;49.50
21891;DHT22;11110;52.386;16.940;2023-04-24T03:40:43;26.80;49.40
21891;DHT22;11110;52.386;16.940;2023-04-24T03:43:26;26.80;49.40
21891;DHT22;11110;52.386;16.940;2023-04-24T03:45:58;26.90;50.10
21891;DHT22;11110;52.386;16.940;2023-04-24T03:48:27;26.80;49.40
21891;DHT22;11110;52.386;16.940;2023-04-24T03:50:56;26.80;49.40
21891;DHT22;11110;52.386;16.940;2023-04-24T03:53:25;26.80;49.50
21891;DHT22;11110;52.386;16.940;2023-04-24T03:55:56;26.80;49.40
21891;DHT22;11110;52.386;16.940;2023-04-24T03:58:24;26.80;49.40
21891;DHT22;11110;52.386;16.940;2023-04-24T04:00:55;26.80;49.10
21891;DHT22;11110;52.386;16.940;2023-04-24T04:03:43;26.70;49.00
21891;DHT22;11110;52.386;16.940;2023-04-24T04:06:14;26.70;49.00
21891;DHT22;11110;52.386;16.940;2023-04-24T04:08:42;26.70;48.90
21891;DHT22;11110;52.386;16.940;2023-04-24T04:11:12;26.60;48.80
21891;DHT22;11110;52.386;16.940;2023-04-24T04:13:40;26.60;48.80
21891;DHT22;11110;52.386;16.940;2023-04-24T04:16:09;26.60;49.00
21891;DHT22;11110;52.386;16.940;2023-04-24T04:18:38;26.60;48.90
21891;DHT22;11110;52.386;16.940;2023-04-24T04:21:07;26.60;49.10
21891;DHT22;11110;52.386;16.940;2023-04-24T04:23:35;26.60;49.10
21891;DHT22;11110;52.386;16.940;2023-04-24T04:26:12;26.50;49.00
21891;DHT22;11110;52.386;16.940;2023-04-24T04:29:02;26.50;49.00
21891;DHT22;11110;52.386;16.940;2023-04-24T04:31:33;26.50;49.30
21891;DHT22;11110;52.386;16.940;2023-04-24T04:34:06;26.50;49.60
21891;DHT22;11110;52.386;16.940;2023-04-24T04:36:36;26.40;49.40
21891;DHT22;11110;52.386;16.940;2023-04-24T04:39:29;26.30;49.60
21891;DHT22;11110;52.386;16.940;2023-04-24T04:42:03;26.30;49.50
21891;DHT22;11110;52.386;16.940;2023-04-24T04:44:38;26.30;49.60
21891;DHT22;11110;52.386;16.940;2023-04-24T04:47:09;26.30;49.60
21891;DHT22;11110;52.386;16.940;2023-04-24T04:49:38;26.20;49.50
21891;DHT22;11110;52.386;16.940;2023-04-24T04:52:14;26.20;49.30
21891;DHT22;11110;52.386;16.940;2023-04-24T04:54:47;26.30;49.50
21891;DHT22;11110;52.386;16.940;2023-04-24T04:57:17;26.10;49.40
21891;DHT22;11110;52.386;16.940;2023-04-24T04:59:45;26.20;49.50
21891;DHT22;11110;52.386;16.940;2023-04-24T05:02:22;26.10;49.30
21891;DHT22;11110;52.386;16.940;2023-04-24T05:04:51;26.10;49.50
21891;DHT22;11110;52.386;16.940;2023-04-24T05:07:21;26.10;49.40
21891;DHT22;11110;52.386;16.940;2023-04-24T05:09:51;26.20;49.40
21891;DHT22;11110;52.386;16.940;2023-04-24T05:12:21;26.10;49.40
21891;DHT22;11110;52.386;16.940;2023-04-24T05:14:52;26.20;49.50
21891;DHT22;11110;52.386;16.940;2023-04-24T05:17:21;26.20;49.40
21891;DHT22;11110;52.386;16.940;2023-04-24T05:19:51;26.10;49.40
21891;DHT22;11110;52.386;16.940;2023-04-24T05:22:19;26.10;49.40
21891;DHT22;11110;52.386;16.940;2023-04-24T05:24:51;26.20;49.70
21891;DHT22;11110;52.386;16.940;2023-04-24T05:27:42;26.20;49.60
21891;DHT22;11110;52.386;16.940;2023-04-24T05:30:14;26.10;49.30
21891;DHT22;11110;52.386;16.940;2023-04-24T05:32:43;26.20;49.50
21891;DHT22;11110;52.386;16.940;2023-04-24T05:35:13;26.20;49.60
21891;DHT22;11110;52.386;16.940;2023-04-24T05:37:41;26.20;49.50
21891;DHT22;11110;52.386;16.940;2023-04-24T05:40:11;26.20;49.50
21891;DHT22;11110;52.386;16.940;2023-04-24T05:42:42;26.30;49.60
21891;DHT22;11110;52.386;16.940;2023-04-24T05:45:10;26.30;49.30
21891;DHT22;11110;52.386;16.940;2023-04-24T05:47:43;26.30;49.20
21891;DHT22;11110;52.386;16.940;2023-04-24T05:50:13;26.30;49.00
21891;DHT22;11110;52.386;16.940;2023-04-24T05:52:42;26.30;48.80
21891;DHT22;11110;52.386;16.940;2023-04-24T05:55:22;26.40;49.10
21891;DHT22;11110;52.386;16.940;2023-04-24T05:57:53;26.30;48.80
21891;DHT22;11110;52.386;16.940;2023-04-24T06:00:23;26.50;48.60
21891;DHT22;11110;52.386;16.940;2023-04-24T06:03:00;26.50;48.40
21891;DHT22;11110;52.386;16.940;2023-04-24T06:05:31;26.50;48.30
21891;DHT22;11110;52.386;16.940;2023-04-24T06:08:02;26.60;48.60
21891;DHT22;11110;52.386;16.940;2023-04-24T06:10:37;26.60;48.40
21891;DHT22;11110;52.386;16.940;2023-04-24T06:13:09;26.60;48.10
21891;DHT22;11110;52.386;16.940;2023-04-24T06:15:42;26.50;48.00
21891;DHT22;11110;52.386;16.940;2023-04-24T06:18:20;26.50;48.10
21891;DHT22;11110;52.386;16.940;2023-04-24T06:20:48;26.40;48.10
21891;DHT22;11110;52.386;16.940;2023-04-24T06:23:17;26.40;48.20
21891;DHT22;11110;52.386;16.940;2023-04-24T06:25:47;26.40;48.70
21891;DHT22;11110;52.386;16.940;2023-04-24T06:28:17;26.50;48.00
21891;DHT22;11110;52.386;16.940;2023-04-24T06:30:45;26.50;47.80
21891;DHT22;11110;52.386;16.940;2023-04-24T06:33:14;26.50;48.00
21891;DHT22;11110;52.386;16.940;2023-04-24T06:35:47;26.40;48.30
21891;DHT22;11110;52.386;16.940;2023-04-24T06:38:16;26.60;48.40
21891;DHT22;11110;52.386;16.940;2023-04-24T06:40:45;26.60;48.60
21891;DHT22;11110;52.386;16.940;2023-04-24T06:43:13;26.60;48.40
21891;DHT22;11110;52.386;16.940;2023-04-24T06:45:43;26.70;48.40
21891;DHT22;11110;52.386;16.940;2023-04-24T06:48:12;26.80;48.80
21891;DHT22;11110;52.386;16.940;2023-04-24T06:50:40;26.90;47.90
21891;DHT22;11110;52.386;16.940;2023-04-24T06:53:09;26.90;47.60
21891;DHT22;11110;52.386;16.940;2023-04-24T06:55:39;26.80;47.50
21891;DHT22;11110;52.386;16.940;2023-04-24T06:58:08;26.80;47.50
21891;DHT22;11110;52.386;16.940;2023-04-24T07:00:37;26.90;47.20
21891;DHT22;11110;52.386;16.940;2023-04-24T07:03:07;27.00;47.30
21891;DHT22;11110;52.386;16.940;2023-04-24T07:05:35;27.00;47.30
21891;DHT22;11110;52.386;16.940;2023-04-24T07:08:04;26.90;47.30
21891;DHT22;11110;52.386;16.940;2023-04-24T07:10:33;27.00;47.60
21891;DHT22;11110;52.386;16.940;2023-04-24T07:13:03;27.00;47.10
21891;DHT22;11110;52.386;16.940;2023-04-24T07:15:31;27.10;47.10
21891;DHT22;11110;52.386;16.940;2023-04-24T07:18:01;27.20;47.20
21891;DHT22;11110;52.386;16.940;2023-04-24T07:20:33;27.30;47.30
21891;DHT22;11110;52.386;16.940;2023-04-24T07:23:02;27.40;47.00
21891;DHT22;11110;52.386;16.940;2023-04-24T07:25:30;27.50;46.80
21891;DHT22;11110;52.386;16.940;2023-04-24T07:27:59;27.60;46.20
21891;DHT22;11110;52.386;16.940;2023-04-24T07:30:28;27.50;46.10
21891;DHT22;11110;52.386;16.940;2023-04-24T07:32:57;27.50;46.30
21891;DHT22;11110;52.386;16.940;2023-04-24T07:35:26;27.50;46.10
21891;DHT22;11110;52.386;16.940;2023-04-24T07:37:55;27.50;46.20
21891;DHT22;11110;52.386;16.940;2023-04-24T07:40:24;27.60;46.20
21891;DHT22;11110;52.386;16.940;2023-04-24T07:42:52;27.70;46.30
21891;DHT22;11110;52.386;16.940;2023-04-24T07:45:21;27.80;46.30
21891;DHT22;11110;52.386;16.940;2023-04-24T07:47:50;28.00;46.00
21891;DHT22;11110;52.386;16.940;2023-04-24T07:50:19;28.10;45.50
21891;DHT22;11110;52.386;16.940;2023-04-24T07:52:48;28.10;45.20
21891;DHT22;11110;52.386;16.940;2023-04-24T07:55:17;28.10;45.00
21891;DHT22;11110;52.386;16.940;2023-04-24T07:57:51;28.20;44.80
21891;DHT22;11110;52.386;16.940;2023-04-24T08:00:20;28.10;44.50
21891;DHT22;11110;52.386;16.940;2023-04-24T08:02:49;28.30;44.40
21891;DHT22;11110;52.386;16.940;2023-04-24T08:05:18;28.20;44.50
21891;DHT22;11110;52.386;16.940;2023-04-24T08:07:47;28.30;44.40
21891;DHT22;11110;52.386;16.940;2023-04-24T08:10:18;28.50;44.50
21891;DHT22;11110;52.386;16.940;2023-04-24T08:12:47;28.50;44.30
21891;DHT22;11110;52.386;16.940;2023-04-24T08:15:15;28.50;44.30
21891;DHT22;11110;52.386;16.940;2023-04-24T08:17:44;28.50;44.10
21891;DHT22;11110;52.386;16.940;2023-04-24T08:20:12;28.50;44.20
21891;DHT22;11110;52.386;16.940;2023-04-24T08:22:42;28.50;44.00
21891;DHT22;11110;52.386;16.940;2023-04-24T08:25:10;28.50;44.00
21891;DHT22;11110;52.386;16.940;2023-04-24T08:27:40;28.50;44.00
21891;DHT22;11110;52.386;16.940;2023-04-24T08:30:10;28.60;44.10
21891;DHT22;11110;52.386;16.940;2023-04-24T08:32:38;28.50;44.00
21891;DHT22;11110;52.386;16.940;2023-04-24T08:35:07;28.50;44.20
21891;DHT22;11110;52.386;16.940;2023-04-24T08:37:37;28.50;44.90
21891;DHT22;11110;52.386;16.940;2023-04-24T08:40:12;28.50;44.00
21891;DHT22;11110;52.386;16.940;2023-04-24T08:42:43;28.60;43.90
21891;DHT22;11110;52.386;16.940;2023-04-24T08:45:12;28.50;43.80
21891;DHT22;11110;52.386;16.940;2023-04-24T08:47:42;28.60;43.80
21891;DHT22;11110;52.386;16.940;2023-04-24T08:50:11;28.60;43.70
21891;DHT22;11110;52.386;16.940;2023-04-24T08:52:42;28.70;43.80
21891;DHT22;11110;52.386;16.940;2023-04-24T08:55:10;28.80;43.80
21891;DHT22;11110;52.386;16.940;2023-04-24T08:57:39;28.80;44.00
21891;DHT22;11110;52.386;16.940;2023-04-24T09:00:10;28.90;43.70
21891;DHT22;11110;52.386;16.940;2023-04-24T09:02:42;28.90;43.70
21891;DHT22;11110;52.386;16.940;2023-04-24T09:05:13;29.00;43.80
21891;DHT22;11110;52.386;16.940;2023-04-24T09:07:44;29.00;43.50
21891;DHT22;11110;52.386;16.940;2023-04-24T09:10:14;29.00;43.60
21891;DHT22;11110;52.386;16.940;2023-04-24T09:12:44;29.00;43.50
21891;DHT22;11110;52.386;16.940;2023-04-24T09:15:14;29.00;43.50
21891;DHT22;11110;52.386;16.940;2023-04-24T09:17:44;29.00;43.70
21891;DHT22;11110;52.386;16.940;2023-04-24T09:20:13;29.10;43.80
21891;DHT22;11110;52.386;16.940;2023-04-24T09:22:42;29.10;43.60
21891;DHT22;11110;52.386;16.940;2023-04-24T09:25:10;29.20;43.60
21891;DHT22;11110;52.386;16.940;2023-04-24T09:27:44;29.30;43.60
21891;DHT22;11110;52.386;16.940;2023-04-24T09:30:21;29.30;43.50
21891;DHT22;11110;52.386;16.940;2023-04-24T09:32:50;29.40;43.50
21891;DHT22;11110;52.386;16.940;2023-04-24T09:35:27;29.40;43.20
21891;DHT22;11110;52.386;16.940;2023-04-24T09:37:57;29.40;43.10
21891;DHT22;11110;52.386;16.940;2023-04-24T09:40:26;29.60;43.20
21891;DHT22;11110;52.386;16.940;2023-04-24T09:42:56;29.60;43.00
21891;DHT22;11110;52.386;16.940;2023-04-24T09:45:28;29.60;42.80
21891;DHT22;11110;52.386;16.940;2023-04-24T09:48:03;29.60;42.60
21891;DHT22;11110;52.386;16.940;2023-04-24T09:50:32;29.60;42.00
21891;DHT22;11110;52.386;16.940;2023-04-24T09:53:03;29.70;41.80
21891;DHT22;11110;52.386;16.940;2023-04-24T09:55:32;29.80;41.70
21891;DHT22;11110;52.386;16.940;2023-04-24T09:58:01;29.70;41.60
21891;DHT22;11110;52.386;16.940;2023-04-24T10:00:34;29.80;41.60
21891;DHT22;11110;52.386;16.940;2023-04-24T10:03:04;29.90;41.50
21891;DHT22;11110;52.386;16.940;2023-04-24T10:05:33;30.00;41.80
21891;DHT22;11110;52.386;16.940;2023-04-24T10:08:04;30.00;41.40
21891;DHT22;11110;52.386;16.940;2023-04-24T10:10:34;30.00;40.90
21891;DHT22;11110;52.386;16.940;2023-04-24T10:13:04;30.10;40.80
21891;DHT22;11110;52.386;16.940;2023-04-24T10:15:34;30.10;40.80
21891;DHT22;11110;52.386;16.940;2023-04-24T10:18:05;30.10;40.80
21891;DHT22;11110;52.386;16.940;2023-04-24T10:20:35;30.20;40.90
21891;DHT22;11110;52.386;16.940;2023-04-24T10:23:04;30.10;41.10
21891;DHT22;11110;52.386;16.940;2023-04-24T10:25:34;30.20;40.90
21891;DHT22;11110;52.386;16.940;2023-04-24T10:28:04;30.20;41.00
21891;DHT22;11110;52.386;16.940;2023-04-24T10:30:36;30.20;40.80
21891;DHT22;11110;52.386;16.940;2023-04-24T10:33:07;30.30;40.80
21891;DHT22;11110;52.386;16.940;2023-04-24T10:35:40;30.30;40.90
21891;DHT22;11110;52.386;16.940;2023-04-24T10:38:13;30.20;40.50
21891;DHT22;11110;52.386;16.940;2023-04-24T10:40:42;30.30;40.30
21891;DHT22;11110;52.386;16.940;2023-04-24T10:43:17;30.30;40.40
21891;DHT22;11110;52.386;16.940;2023-04-24T10:48:43;30.40;40.40
21891;DHT22;11110;52.386;16.940;2023-04-24T10:51:21;30.60;40.60
21891;DHT22;11110;52.386;16.940;2023-04-24T10:53:50;30.40;40.40
21891;DHT22;11110;52.386;16.940;2023-04-24T10:56:21;30.40;40.40
21891;DHT22;11110;52.386;16.940;2023-04-24T10:58:51;30.40;40.30
21891;DHT22;11110;52.386;16.940;2023-04-24T11:01:27;30.40;40.50
21891;DHT22;11110;52.386;16.940;2023-04-24T11:03:59;30.40;40.70
21891;DHT22;11110;52.386;16.940;2023-04-24T11:06:32;30.50;40.90
21891;DHT22;11110;52.386;16.940;2023-04-24T11:09:03;30.50;41.10
21891;DHT22;11110;52.386;16.940;2023-04-24T11:11:33;30.60;41.00
21891;DHT22;11110;52.386;16.940;2023-04-24T11:14:09;30.60;40.70
21891;DHT22;11110;52.386;16.940;2023-04-24T11:16:45;30.60;40.20
21891;DHT22;11110;52.386;16.940;2023-04-24T11:19:22;30.80;39.70
21891;DHT22;11110;52.386;16.940;2023-04-24T11:21:57;30.60;39.20
21891;DHT22;11110;52.386;16.940;2023-04-24T11:24:30;30.70;38.90
21891;DHT22;11110;52.386;16.940;2023-04-24T11:27:06;30.70;38.40
21891;DHT22;11110;52.386;16.940;2023-04-24T11:29:42;30.80;38.20
21891;DHT22;11110;52.386;16.940;2023-04-24T11:32:23;30.80;38.20
21891;DHT22;11110;52.386;16.940;2023-04-24T11:34:54;30.80;38.50
21891;DHT22;11110;52.386;16.940;2023-04-24T11:37:25;30.80;38.40
21891;DHT22;11110;52.386;16.940;2023-04-24T11:39:54;30.70;38.40
21891;DHT22;11110;52.386;16.940;2023-04-24T11:42:24;30.70;38.30
21891;DHT22;11110;52.386;16.940;2023-04-24T11:44:53;30.70;38.30
21891;DHT22;11110;52.386;16.940;2023-04-24T11:47:29;30.70;37.90
21891;DHT22;11110;52.386;16.940;2023-04-24T11:50:00;30.70;37.70
21891;DHT22;11110;52.386;16.940;2023-04-24T11:52:30;30.80;38.00
21891;DHT22;11110;52.386;16.940;2023-04-24T11:54:59;30.80;37.80
21891;DHT22;11110;52.386;16.940;2023-04-24T11:57:28;30.80;37.50
21891;DHT22;11110;52.386;16.940;2023-04-24T12:00:01;30.80;37.20
21891;DHT22;11110;52.386;16.940;2023-04-24T12:02:38;30.90;36.80
21891;DHT22;11110;52.386;16.940;2023-04-24T12:05:08;30.90;37.10
21891;DHT22;11110;52.386;16.940;2023-04-24T12:07:40;31.00;37.40
21891;DHT22;11110;52.386;16.940;2023-04-24T12:10:10;31.00;37.10
21891;DHT22;11110;52.386;16.940;2023-04-24T12:12:39;31.00;37.30
21891;DHT22;11110;52.386;16.940;2023-04-24T12:15:08;31.10;37.40
21891;DHT22;11110;52.386;16.940;2023-04-24T12:17:41;31.00;37.20
21891;DHT22;11110;52.386;16.940;2023-04-24T12:20:12;31.10;37.40
21891;DHT22;11110;52.386;16.940;2023-04-24T12:22:45;31.00;37.40
21891;DHT22;11110;52.386;16.940;2023-04-24T12:25:15;31.00;37.40
21891;DHT22;11110;52.386;16.940;2023-04-24T12:27:44;31.00;37.50
21891;DHT22;11110;52.386;16.940;2023-04-24T12:30:13;31.00;37.40
21891;DHT22;11110;52.386;16.940;2023-04-24T12:32:44;30.90;37.60
21891;DHT22;11110;52.386;16.940;2023-04-24T12:35:19;30.90;37.70
21891;DHT22;11110;52.386;16.940;2023-04-24T12:37:48;30.90;37.80
21891;DHT22;11110;52.386;16.940;2023-04-24T12:40:18;30.90;38.10
21891;DHT22;11110;52.386;16.940;2023-04-24T12:42:48;30.80;38.00
21891;DHT22;11110;52.386;16.940;2023-04-24T12:45:18;30.80;38.30
21891;DHT22;11110;52.386;16.940;2023-04-24T12:47:48;30.80;39.00
21891;DHT22;11110;52.386;16.940;2023-04-24T12:50:18;30.70;38.40
21891;DHT22;11110;52.386;16.940;2023-04-24T12:52:47;30.70;39.20
21891;DHT22;11110;52.386;16.940;2023-04-24T12:55:16;30.70;38.50
21891;DHT22;11110;52.386;16.940;2023-04-24T12:57:44;30.60;38.70
21891;DHT22;11110;52.386;16.940;2023-04-24T13:00:13;30.60;39.00
21891;DHT22;11110;52.386;16.940;2023-04-24T13:02:45;30.60;39.20
21891;DHT22;11110;52.386;16.940;2023-04-24T13:05:13;30.50;39.60
21891;DHT22;11110;52.386;16.940;2023-04-24T13:07:44;30.50;39.60
21891;DHT22;11110;52.386;16.940;2023-04-24T13:10:12;30.50;39.80
21891;DHT22;11110;52.386;16.940;2023-04-24T13:12:41;30.50;39.60
21891;DHT22;11110;52.386;16.940;2023-04-24T13:15:12;30.50;39.50
21891;DHT22;11110;52.386;16.940;2023-04-24T13:17:41;30.40;39.50
21891;DHT22;11110;52.386;16.940;2023-04-24T13:20:10;30.40;39.40
21891;DHT22;11110;52.386;16.940;2023-04-24T13:22:38;30.40;39.20
21891;DHT22;11110;52.386;16.940;2023-04-24T13:25:09;30.40;39.00
21891;DHT22;11110;52.386;16.940;2023-04-24T13:27:38;30.40;39.00
21891;DHT22;11110;52.386;16.940;2023-04-24T13:30:08;30.40;39.20
21891;DHT22;11110;52.386;16.940;2023-04-24T13:32:37;30.30;38.90
21891;DHT22;11110;52.386;16.940;2023-04-24T13:35:05;30.40;39.00
21891;DHT22;11110;52.386;16.940;2023-04-24T13:37:34;30.40;39.10
21891;DHT22;11110;52.386;16.940;2023-04-24T13:40:03;30.30;38.80
21891;DHT22;11110;52.386;16.940;2023-04-24T13:42:35;30.40;38.50
21891;DHT22;11110;52.386;16.940;2023-04-24T13:45:05;30.40;38.60
21891;DHT22;11110;52.386;16.940;2023-04-24T13:47:51;30.40;38.50
21891;DHT22;11110;52.386;16.940;2023-04-24T13:50:21;30.40;38.10
21891;DHT22;11110;52.386;16.940;2023-04-24T13:52:49;30.40;37.50
21891;DHT22;11110;52.386;16.940;2023-04-24T13:55:18;30.30;37.20
21891;DHT22;11110;52.386;16.940;2023-04-24T13:57:48;30.20;37.20
21891;DHT22;11110;52.386;16.940;2023-04-24T14:00:17;30.20;37.30
21891;DHT22;11110;52.386;16.940;2023-04-24T14:02:46;30.20;37.40
21891;DHT22;11110;52.386;16.940;2023-04-24T14:05:15;30.20;37.10
21891;DHT22;11110;52.386;16.940;2023-04-24T14:07:43;30.10;37.00
21891;DHT22;11110;52.386;16.940;2023-04-24T14:10:12;30.10;36.70
21891;DHT22;11110;52.386;16.940;2023-04-24T14:12:40;30.20;36.80
21891;DHT22;11110;52.386;16.940;2023-04-24T14:15:11;30.20;36.80
21891;DHT22;11110;52.386;16.940;2023-04-24T14:17:40;30.20;36.60
21891;DHT22;11110;52.386;16.940;2023-04-24T14:20:09;30.20;36.50
21891;DHT22;11110;52.386;16.940;2023-04-24T14:22:38;30.20;36.60
21891;DHT22;11110;52.386;16.940;2023-04-24T14:25:07;30.10;37.20
21891;DHT22;11110;52.386;16.940;2023-04-24T14:27:36;30.20;36.70
21891;DHT22;11110;52.386;16.940;2023-04-24T14:30:06;30.10;36.80
21891;DHT22;11110;52.386;16.940;2023-04-24T14:32:36;30.20;36.20
21891;DHT22;11110;52.386;16.940;2023-04-24T14:35:05;30.20;36.60
21891;DHT22;11110;52.386;16.940;2023-04-24T14:37:34;30.10;36.50
21891;DHT22;11110;52.386;16.940;2023-04-24T14:40:04;30.00;36.20
21891;DHT22;11110;52.386;16.940;2023-04-24T14:42:38;29.90;36.30
21891;DHT22;11110;52.386;16.940;2023-04-24T14:45:07;29.90;36.90
21891;DHT22;11110;52.386;16.940;2023-04-24T14:47:38;29.90;38.20
21891;DHT22;11110;52.386;16.940;2023-04-24T14:50:07;29.90;38.80
21891;DHT22;11110;52.386;16.940;2023-04-24T14:52:36;29.70;38.50
21891;DHT22;11110;52.386;16.940;2023-04-24T14:55:05;29.60;39.20
21891;DHT22;11110;52.386;16.940;2023-04-24T14:57:35;29.60;39.60
21891;DHT22;11110;52.386;16.940;2023-04-24T15:00:04;29.50;39.60
21891;DHT22;11110;52.386;16.940;2023-04-24T15:02:37;29.40;39.60
21891;DHT22;11110;52.386;16.940;2023-04-24T15:05:09;29.40;39.80
21891;DHT22;11110;52.386;16.940;2023-04-24T15:07:38;29.40;40.10
21891;DHT22;11110;52.386;16.940;2023-04-24T15:10:09;29.40;40.30
21891;DHT22;11110;52.386;16.940;2023-04-24T15:12:38;29.30;40.50
21891;DHT22;11110;52.386;16.940;2023-04-24T15:15:08;29.40;40.70
21891;DHT22;11110;52.386;16.940;2023-04-24T15:17:38;29.30;40.80
21891;DHT22;11110;52.386;16.940;2023-04-24T15:20:07;29.30;41.00
21891;DHT22;11110;52.386;16.940;2023-04-24T15:22:36;29.30;40.90
21891;DHT22;11110;52.386;16.940;2023-04-24T15:25:05;29.20;40.90
21891;DHT22;11110;52.386;16.940;2023-04-24T15:27:44;29.30;41.20
21891;DHT22;11110;52.386;16.940;2023-04-24T15:30:13;29.30;41.00
21891;DHT22;11110;52.386;16.940;2023-04-24T15:32:43;29.20;41.40
21891;DHT22;11110;52.386;16.940;2023-04-24T15:35:12;29.10;41.60
21891;DHT22;11110;52.386;16.940;2023-04-24T15:37:40;29.10;41.80